Time;durP1;ratioP1;P1;durP2;ratioP2;P2;SDS_P1;SDS_P2;PMS_P1;PMS_P2;Temp;Humidity;BMP_temperature;BMP_pressure;BME280_temperature;BME280_humidity;BME280_pressure;Samples;Min_cycle;Max_cycle;Signal;HPM_P1;HPM_P2
2022/04/29 00:00:44;;;;;;;8.90;7.68;;;11.10;99.90;;;;;;2080778;28;20068;-68
2022/04/29 00:01:44;;;;;;;13.73;9.43;;;11.10;99.30;;;;;;2080023;28;20025;-68
2022/04/29 00:02:46;;;;;;;15.55;11.40;;;11.10;99.10;;;;;;2081897;28;20021;-68
2022/04/29 00:03:47;;;;;;;15.32;9.68;;;11.10;99.90;;;;;;2082817;28;20033;-68
2022/04/29 00:04:47;;;;;;;13.02;8.00;;;11.10;99.30;;;;;;2083157;28;20510;-68
2022/04/29 00:05:48;;;;;;;12.52;10.10;;;11.10;99.00;;;;;;2081693;28;20087;-68
2022/04/29 00:06:49;;;;;;;11.40;8.80;;;11.10;99.00;;;;;;2080485;28;20049;-68
2022/04/29 00:07:49;;;;;;;12.50;8.88;;;11.10;98.40;;;;;;2080859;28;20029;-68
2022/04/29 00:08:50;;;;;;;12.38;9.88;;;11.10;97.90;;;;;;2080298;28;20029;-68
2022/04/29 00:09:50;;;;;;;13.77;9.52;;;11.10;98.80;;;;;;2079728;28;20041;-68
2022/04/29 00:10:51;;;;;;;11.68;8.27;;;11.10;98.70;;;;;;2080072;28;20104;-68
2022/04/29 00:11:53;;;;;;;10.32;8.38;;;11.00;97.70;;;;;;2080280;28;20035;-68
2022/04/29 00:12:54;;;;;;;16.20;10.48;;;11.00;97.80;;;;;;2080287;28;20034;-68
2022/04/29 00:13:54;;;;;;;12.70;9.82;;;11.00;98.80;;;;;;2080447;28;20025;-68
2022/04/29 00:14:55;;;;;;;11.90;9.65;;;11.00;99.10;;;;;;2081273;28;20021;-68
2022/04/29 00:15:56;;;;;;;10.50;9.27;;;11.00;98.70;;;;;;2080317;28;20528;-68
2022/04/29 00:16:57;;;;;;;13.55;9.40;;;11.00;97.90;;;;;;2079138;28;20021;-68
2022/04/29 00:17:58;;;;;;;9.43;8.35;;;11.00;97.90;;;;;;2079754;28;20037;-68
2022/04/29 00:18:58;;;;;;;11.60;9.07;;;11.00;97.70;;;;;;2081301;28;20034;-68
2022/04/29 00:19:59;;;;;;;14.85;12.30;;;10.90;97.20;;;;;;2083113;28;20033;-68
2022/04/29 00:20:59;;;;;;;16.45;12.93;;;10.90;99.30;;;;;;2080468;28;20032;-68
2022/04/29 00:22:00;;;;;;;10.27;9.25;;;10.90;99.90;;;;;;2081888;28;20607;-68
2022/04/29 00:23:01;;;;;;;11.93;9.27;;;10.90;99.90;;;;;;2079716;28;20030;-68
2022/04/29 00:24:02;;;;;;;12.70;8.70;;;10.90;99.10;;;;;;2081071;28;20034;-68
2022/04/29 00:25:03;;;;;;;13.85;10.25;;;10.90;98.20;;;;;;2080217;28;20030;-68
2022/04/29 00:26:04;;;;;;;15.77;12.15;;;10.90;98.50;;;;;;2082858;28;20033;-68
2022/04/29 00:27:05;;;;;;;13.80;9.55;;;10.90;99.80;;;;;;2082787;28;20026;-68
2022/04/29 00:28:06;;;;;;;14.27;11.20;;;10.80;99.20;;;;;;2082956;28;20053;-68
2022/04/29 00:29:07;;;;;;;10.48;9.38;;;10.80;99.90;;;;;;2081358;28;20049;-68
2022/04/29 00:30:10;;;;;;;12.00;9.43;;;10.80;99.70;;;;;;2079754;28;20397;-68
2022/04/29 00:31:10;;;;;;;19.35;11.30;;;10.80;99.60;;;;;;2079482;28;20068;-68
2022/04/29 00:32:11;;;;;;;14.38;10.98;;;10.80;99.30;;;;;;2079357;28;20524;-68
2022/04/29 00:33:12;;;;;;;12.23;9.43;;;10.80;99.30;;;;;;2078989;28;20052;-68
2022/04/29 00:34:12;;;;;;;14.38;10.55;;;10.80;99.00;;;;;;2080220;28;20485;-68
2022/04/29 00:35:13;;;;;;;11.70;8.80;;;10.80;99.90;;;;;;2084465;28;20039;-68
2022/04/29 00:36:14;;;;;;;15.10;9.82;;;10.80;99.80;;;;;;2082537;28;20481;-68
2022/04/29 00:37:16;;;;;;;14.30;10.32;;;10.80;99.00;;;;;;2079687;28;20354;-68
2022/04/29 00:38:17;;;;;;;16.90;11.02;;;10.70;99.20;;;;;;2079583;28;20029;-68
2022/04/29 00:39:17;;;;;;;12.65;10.30;;;10.70;99.70;;;;;;2079732;28;20021;-68
2022/04/29 00:40:21;;;;;;;12.63;10.18;;;10.70;99.90;;;;;;2080795;28;20056;-68
2022/04/29 00:41:23;;;;;;;18.63;13.02;;;10.70;99.90;;;;;;2075603;28;20040;-68
2022/04/29 00:42:24;;;;;;;16.38;10.90;;;10.70;99.90;;;;;;2076782;28;20018;-68
2022/04/29 00:43:25;;;;;;;13.52;10.77;;;10.70;99.90;;;;;;2082753;28;20013;-68
2022/04/29 00:44:25;;;;;;;17.05;12.13;;;10.60;99.90;;;;;;2082615;28;20037;-68
2022/04/29 00:45:26;;;;;;;15.88;11.52;;;10.60;99.90;;;;;;2079739;28;20025;-68
2022/04/29 00:46:27;;;;;;;17.27;12.93;;;10.60;99.90;;;;;;2077219;28;20480;-68
2022/04/29 00:47:27;;;;;;;16.88;12.63;;;10.60;99.90;;;;;;2077633;28;20026;-68
2022/04/29 00:48:28;;;;;;;16.88;13.20;;;10.60;99.90;;;;;;2080641;28;20132;-68
2022/04/29 00:49:29;;;;;;;14.60;10.48;;;10.60;99.90;;;;;;2080980;28;20588;-68
2022/04/29 00:50:30;;;;;;;14.48;12.90;;;10.60;99.90;;;;;;2085516;28;20487;-68
2022/04/29 00:51:31;;;;;;;15.52;12.95;;;10.60;99.90;;;;;;2082906;28;20037;-68
2022/04/29 00:52:35;;;;;;;15.40;12.88;;;10.60;99.90;;;;;;2082528;28;20052;-68
2022/04/29 00:53:37;;;;;;;13.07;8.57;;;10.60;99.90;;;;;;2077214;28;20021;-68
2022/04/29 00:54:39;;;;;;;18.45;12.48;;;10.60;99.90;;;;;;2080347;28;20021;-68
2022/04/29 00:55:41;;;;;;;17.05;13.77;;;10.60;99.90;;;;;;2079957;28;20036;-68
2022/04/29 00:56:42;;;;;;;17.55;13.57;;;10.50;99.90;;;;;;2079847;28;20033;-68
2022/04/29 00:57:49;;;;;;;15.73;11.68;;;10.50;99.90;;;;;;2082400;28;20024;-68
2022/04/29 00:59:04;;;;;;;13.05;11.50;;;10.50;99.90;;;;;;2079652;28;20037;-68
2022/04/29 01:00:08;;;;;;;15.10;11.63;;;10.50;99.90;;;;;;2082207;28;20367;-68
2022/04/29 01:01:10;;;;;;;15.85;11.07;;;10.50;99.90;;;;;;2080571;28;20037;-68
2022/04/29 01:02:13;;;;;;;18.98;12.07;;;10.50;99.90;;;;;;2079387;28;20624;-68
2022/04/29 01:03:14;;;;;;;17.13;13.10;;;10.50;99.90;;;;;;2080188;28;20532;-68
2022/04/29 01:04:41;;;;;;;19.15;12.40;;;10.50;99.90;;;;;;2079598;28;20065;-68
2022/04/29 01:05:42;;;;;;;15.27;12.60;;;10.40;99.90;;;;;;2079653;28;20535;-68
2022/04/29 01:06:43;;;;;;;13.93;10.48;;;10.40;99.90;;;;;;2079538;28;20017;-68
2022/04/29 01:07:45;;;;;;;17.17;12.52;;;10.40;99.90;;;;;;2079630;28;20033;-68
2022/04/29 01:08:45;;;;;;;15.93;11.82;;;10.40;99.90;;;;;;2079387;28;20036;-68
2022/04/29 01:09:46;;;;;;;21.15;13.52;;;10.40;99.90;;;;;;2078662;28;20028;-68
2022/04/29 01:10:47;;;;;;;19.00;13.35;;;10.40;99.90;;;;;;2079368;28;20040;-68
2022/04/29 01:11:50;;;;;;;17.52;12.55;;;10.40;99.90;;;;;;2079889;28;20034;-68
2022/04/29 01:12:55;;;;;;;14.70;11.95;;;10.40;99.90;;;;;;2079295;28;20438;-68
2022/04/29 01:13:55;;;;;;;15.30;12.23;;;10.40;99.90;;;;;;2079638;28;20061;-68
2022/04/29 01:14:59;;;;;;;17.90;12.10;;;10.30;99.90;;;;;;2079788;28;20508;-68
2022/04/29 01:15:59;;;;;;;16.83;12.23;;;10.30;99.90;;;;;;2077641;28;20026;-68
2022/04/29 01:17:00;;;;;;;19.10;12.38;;;10.30;99.90;;;;;;2078268;28;20033;-68
2022/04/29 01:18:08;;;;;;;18.65;12.32;;;10.30;99.90;;;;;;2080867;28;20095;-68
2022/04/29 01:19:09;;;;;;;14.75;12.18;;;10.30;99.90;;;;;;2080443;28;20036;-68
2022/04/29 01:20:15;;;;;;;18.92;12.18;;;10.30;99.90;;;;;;2080056;28;20044;-68
2022/04/29 01:21:16;;;;;;;19.08;12.27;;;10.30;99.90;;;;;;2079925;28;20041;-68
2022/04/29 01:22:17;;;;;;;18.08;12.13;;;10.30;99.90;;;;;;2083116;28;20036;-68
2022/04/29 01:23:17;;;;;;;23.33;13.80;;;10.30;99.90;;;;;;2079426;28;20024;-68
2022/04/29 01:24:18;;;;;;;21.40;12.90;;;10.30;99.90;;;;;;2082049;28;20025;-68
2022/04/29 01:25:18;;;;;;;17.45;12.48;;;10.30;99.90;;;;;;2081416;28;20025;-68
2022/04/29 01:26:19;;;;;;;16.60;12.38;;;10.30;99.90;;;;;;2081041;28;20029;-68
2022/04/29 01:27:19;;;;;;;19.02;12.20;;;10.20;99.90;;;;;;2079156;28;20029;-68
2022/04/29 01:28:21;;;;;;;17.88;12.32;;;10.20;99.90;;;;;;2079031;28;20165;-68
2022/04/29 01:29:23;;;;;;;16.10;12.25;;;10.20;99.90;;;;;;2079953;28;20095;-68
2022/04/29 01:30:24;;;;;;;21.02;12.75;;;10.20;99.90;;;;;;2082590;28;20393;-68
2022/04/29 01:31:24;;;;;;;16.45;12.60;;;10.20;99.90;;;;;;2080056;28;20021;-68
2022/04/29 01:32:26;;;;;;;15.48;12.70;;;10.20;99.90;;;;;;2081984;28;20104;-68
2022/04/29 01:33:30;;;;;;;16.30;12.15;;;10.20;99.90;;;;;;2080332;28;20032;-68
2022/04/29 01:34:31;;;;;;;24.35;13.02;;;10.20;99.90;;;;;;2076466;28;20030;-68
2022/04/29 01:35:31;;;;;;;18.50;12.43;;;10.20;99.90;;;;;;2079390;28;20053;-68
2022/04/29 01:36:32;;;;;;;16.70;12.50;;;10.10;99.90;;;;;;2079675;28;20033;-68
2022/04/29 01:37:33;;;;;;;20.83;12.63;;;10.10;99.90;;;;;;2079345;28;20663;-68
2022/04/29 01:38:34;;;;;;;16.80;11.82;;;10.10;99.90;;;;;;2079440;28;20025;-68
2022/04/29 01:39:34;;;;;;;21.58;12.30;;;10.10;99.90;;;;;;2081472;28;20032;-68
2022/04/29 01:40:35;;;;;;;23.70;12.52;;;10.10;99.90;;;;;;2079822;28;20024;-68
2022/04/29 01:41:35;;;;;;;18.30;12.80;;;10.10;99.90;;;;;;2080787;28;20028;-68
2022/04/29 01:42:36;;;;;;;18.25;12.63;;;10.10;99.90;;;;;;2079503;28;20473;-68
2022/04/29 01:43:37;;;;;;;17.95;12.27;;;10.00;99.90;;;;;;2081693;28;20021;-68
2022/04/29 01:44:37;;;;;;;16.17;12.18;;;10.00;99.90;;;;;;2083874;28;20107;-68
2022/04/29 01:45:38;;;;;;;19.05;11.70;;;10.10;99.90;;;;;;2082337;28;20026;-68
2022/04/29 01:46:38;;;;;;;14.75;12.23;;;10.00;99.90;;;;;;2079493;28;20116;-68
2022/04/29 01:47:39;;;;;;;18.00;12.00;;;10.00;99.90;;;;;;2080930;28;20443;-68
2022/04/29 01:48:40;;;;;;;17.05;11.80;;;10.00;99.90;;;;;;2081069;28;20040;-68
2022/04/29 01:49:41;;;;;;;19.25;11.77;;;10.00;99.90;;;;;;2080869;28;20481;-68
2022/04/29 01:50:41;;;;;;;18.20;12.05;;;10.00;99.90;;;;;;2079556;28;20104;-68
2022/04/29 01:51:42;;;;;;;15.30;11.32;;;10.00;99.90;;;;;;2079954;28;20056;-68
2022/04/29 01:52:43;;;;;;;19.48;12.30;;;10.00;99.90;;;;;;2079479;28;20068;-68
2022/04/29 01:53:43;;;;;;;19.02;12.30;;;10.00;99.90;;;;;;2072589;28;20026;-68
2022/04/29 01:54:44;;;;;;;15.18;11.85;;;10.00;99.90;;;;;;2079243;28;20029;-68
2022/04/29 01:55:44;;;;;;;19.05;12.05;;;9.90;99.90;;;;;;2078885;28;20128;-68
2022/04/29 01:56:47;;;;;;;16.63;11.20;;;10.00;99.90;;;;;;2080527;28;20078;-68
2022/04/29 01:57:49;;;;;;;16.08;11.70;;;9.90;99.90;;;;;;2079932;28;20026;-68
2022/04/29 01:58:50;;;;;;;17.13;11.45;;;9.90;99.90;;;;;;2079584;28;20509;-68
2022/04/29 01:59:50;;;;;;;14.88;10.63;;;9.90;99.90;;;;;;2079230;28;20390;-68
2022/04/29 02:00:51;;;;;;;13.80;11.05;;;9.90;99.90;;;;;;2080004;28;20373;-68
2022/04/29 02:01:51;;;;;;;14.57;10.88;;;9.90;99.90;;;;;;2079506;28;20030;-68
2022/04/29 02:02:52;;;;;;;17.30;10.98;;;9.90;99.90;;;;;;2080912;28;20029;-68
2022/04/29 02:03:54;;;;;;;13.13;10.70;;;9.90;99.90;;;;;;2083596;28;20036;-68
2022/04/29 02:04:55;;;;;;;17.50;12.15;;;9.90;99.90;;;;;;2082076;28;20029;-68
2022/04/29 02:05:55;;;;;;;12.20;9.13;;;9.90;99.90;;;;;;2079615;28;20041;-68
2022/04/29 02:06:56;;;;;;;15.80;10.15;;;9.90;99.90;;;;;;2079835;28;20083;-68
2022/04/29 02:08:00;;;;;;;16.88;10.20;;;9.80;99.90;;;;;;2079348;28;20053;-68
2022/04/29 02:09:01;;;;;;;13.65;10.35;;;9.80;99.90;;;;;;2078577;28;20021;-68
2022/04/29 02:10:02;;;;;;;16.13;10.57;;;9.80;99.90;;;;;;2079434;28;20028;-68
2022/04/29 02:11:03;;;;;;;18.27;10.85;;;9.80;99.90;;;;;;2079524;28;20018;-68
2022/04/29 02:12:04;;;;;;;19.98;10.88;;;9.80;99.90;;;;;;2079433;28;20026;-68
2022/04/29 02:13:05;;;;;;;14.23;9.85;;;9.80;99.90;;;;;;2078931;28;20030;-68
2022/04/29 02:14:05;;;;;;;13.65;9.52;;;9.80;99.90;;;;;;2080440;28;20090;-68
2022/04/29 02:15:07;;;;;;;15.23;9.77;;;9.70;99.90;;;;;;2079984;28;20029;-68
2022/04/29 02:16:07;;;;;;;17.85;10.07;;;9.70;99.90;;;;;;2080049;28;20021;-68
2022/04/29 02:17:10;;;;;;;12.63;9.75;;;9.80;99.90;;;;;;2084563;28;20053;-68
2022/04/29 02:18:11;;;;;;;13.65;10.25;;;9.70;99.90;;;;;;2083849;28;20061;-68
2022/04/29 02:19:12;;;;;;;13.68;10.10;;;9.70;99.90;;;;;;2083551;28;20056;-68
2022/04/29 02:20:12;;;;;;;15.27;9.88;;;9.70;99.90;;;;;;2080929;28;20694;-68
2022/04/29 02:21:13;;;;;;;15.27;9.35;;;9.70;99.90;;;;;;2081804;28;20025;-68
2022/04/29 02:22:14;;;;;;;15.43;9.85;;;9.70;99.90;;;;;;2081146;28;20037;-68
2022/04/29 02:23:14;;;;;;;17.17;9.70;;;9.70;99.90;;;;;;2078871;28;20678;-68
2022/04/29 02:24:15;;;;;;;18.80;9.98;;;9.70;99.90;;;;;;2081732;28;20033;-68
2022/04/29 02:25:16;;;;;;;13.68;9.35;;;9.70;99.90;;;;;;2079445;28;20029;-68
2022/04/29 02:26:16;;;;;;;14.65;10.27;;;9.70;99.90;;;;;;2080941;28;20028;-68
2022/04/29 02:27:17;;;;;;;15.27;9.48;;;9.70;99.90;;;;;;2081298;28;20035;-68
2022/04/29 02:28:17;;;;;;;13.93;9.07;;;9.60;99.90;;;;;;2082842;28;20627;-68
2022/04/29 02:29:18;;;;;;;14.32;9.35;;;9.60;99.90;;;;;;2081568;28;20732;-68
2022/04/29 02:30:18;;;;;;;14.10;9.38;;;9.60;99.90;;;;;;2082063;28;20378;-68
2022/04/29 02:31:19;;;;;;;16.00;9.55;;;9.60;99.90;;;;;;2081470;28;20026;-68
2022/04/29 02:32:20;;;;;;;15.07;9.73;;;9.60;99.90;;;;;;2078127;28;20017;-68
2022/04/29 02:33:21;;;;;;;12.30;9.00;;;9.60;99.90;;;;;;2081108;28;20037;-68
2022/04/29 02:34:23;;;;;;;17.52;9.40;;;9.60;99.90;;;;;;2086805;28;20101;-68
2022/04/29 02:35:24;;;;;;;13.85;8.65;;;9.60;99.90;;;;;;2080203;28;20530;-68
2022/04/29 02:36:25;;;;;;;13.77;9.15;;;9.60;99.90;;;;;;2081980;28;20775;-68
2022/04/29 02:37:27;;;;;;;17.85;8.77;;;9.60;99.90;;;;;;2081120;28;20028;-68
2022/04/29 02:38:27;;;;;;;16.50;9.10;;;9.60;99.90;;;;;;2077439;28;20386;-68
2022/04/29 02:39:28;;;;;;;13.48;9.63;;;9.50;99.90;;;;;;2080414;28;20053;-68
2022/04/29 02:40:29;;;;;;;14.07;9.65;;;9.50;99.90;;;;;;2081015;28;20053;-68
2022/04/29 02:41:29;;;;;;;13.20;8.70;;;9.50;99.90;;;;;;2081039;28;20058;-68
2022/04/29 02:42:30;;;;;;;10.85;9.10;;;9.50;99.90;;;;;;2082574;28;20067;-68
2022/04/29 02:43:34;;;;;;;13.32;8.88;;;9.50;99.90;;;;;;2082227;28;20021;-68
2022/04/29 02:44:35;;;;;;;15.23;9.18;;;9.50;99.90;;;;;;2083678;28;20113;-68
2022/04/29 02:45:35;;;;;;;19.50;8.77;;;9.50;99.90;;;;;;2079296;28;20033;-68
2022/04/29 02:46:36;;;;;;;14.52;9.00;;;9.50;99.90;;;;;;2080921;28;20717;-68
2022/04/29 02:47:36;;;;;;;17.85;9.38;;;9.50;99.90;;;;;;2080788;28;20068;-68
2022/04/29 02:48:37;;;;;;;13.25;8.65;;;9.50;99.90;;;;;;2080805;28;20014;-68
2022/04/29 02:49:39;;;;;;;14.82;9.85;;;9.50;99.90;;;;;;2077134;28;20111;-68
2022/04/29 02:50:40;;;;;;;17.30;8.85;;;9.50;99.90;;;;;;2077291;28;20064;-68
2022/04/29 02:51:41;;;;;;;14.85;9.23;;;9.50;99.90;;;;;;2080557;28;20033;-68
2022/04/29 02:52:41;;;;;;;14.43;8.25;;;9.50;99.90;;;;;;2081019;28;20029;-68
2022/04/29 02:53:43;;;;;;;10.23;8.00;;;9.50;99.90;;;;;;2080623;28;20048;-68
2022/04/29 02:54:43;;;;;;;15.95;8.93;;;9.50;99.90;;;;;;2081377;28;20034;-68
2022/04/29 02:55:44;;;;;;;11.23;8.38;;;9.40;99.90;;;;;;2080115;28;20025;-68
2022/04/29 02:56:44;;;;;;;16.88;8.75;;;9.50;99.90;;;;;;2080894;28;20032;-68
2022/04/29 02:57:45;;;;;;;15.80;8.98;;;9.50;99.90;;;;;;2082902;28;20040;-67
2022/04/29 02:58:45;;;;;;;13.27;8.57;;;9.40;99.90;;;;;;2081943;28;20035;-68
2022/04/29 02:59:46;;;;;;;13.60;8.43;;;9.40;99.90;;;;;;2082285;28;20029;-68
2022/04/29 03:00:47;;;;;;;14.30;8.63;;;9.40;99.90;;;;;;2082299;28;20365;-68
2022/04/29 03:01:47;;;;;;;13.70;8.45;;;9.40;99.90;;;;;;2080876;28;20037;-68
2022/04/29 03:02:48;;;;;;;14.10;8.10;;;9.50;99.90;;;;;;2080886;28;20432;-68
2022/04/29 03:03:49;;;;;;;13.20;8.07;;;9.40;99.90;;;;;;2084144;28;20036;-68
2022/04/29 03:04:49;;;;;;;12.57;8.25;;;9.40;99.90;;;;;;2086143;28;20473;-68
2022/04/29 03:05:50;;;;;;;10.32;7.70;;;9.40;99.90;;;;;;2080283;28;20084;-68
2022/04/29 03:06:50;;;;;;;15.80;8.18;;;9.40;99.90;;;;;;2080584;28;20033;-68
2022/04/29 03:07:51;;;;;;;18.90;8.82;;;9.40;99.90;;;;;;2080717;28;20052;-68
2022/04/29 03:08:52;;;;;;;21.88;8.25;;;9.40;99.90;;;;;;2079583;28;20119;-68
2022/04/29 03:09:52;;;;;;;13.13;7.85;;;9.40;99.90;;;;;;2080220;28;20041;-67
2022/04/29 03:10:53;;;;;;;10.65;7.72;;;9.30;99.90;;;;;;2076812;28;20466;-67
2022/04/29 03:11:53;;;;;;;15.57;8.98;;;9.40;99.90;;;;;;2080875;28;20025;-67
2022/04/29 03:12:54;;;;;;;13.95;8.40;;;9.30;99.90;;;;;;2080390;28;20531;-67
2022/04/29 03:13:56;;;;;;;10.43;7.88;;;9.40;99.90;;;;;;2080985;28;20041;-67
2022/04/29 03:15:15;;;;;;;15.98;8.88;;;9.40;99.90;;;;;;2082557;28;20072;-67
2022/04/29 03:16:16;;;;;;;12.93;7.72;;;9.30;99.90;;;;;;2078066;28;20022;-67
2022/04/29 03:18:49;;;;;;;11.48;8.15;;;9.30;99.90;;;;;;2078648;28;20041;-68
2022/04/29 03:19:50;;;;;;;12.10;7.95;;;9.30;99.90;;;;;;2080208;28;20046;-67
2022/04/29 03:20:53;;;;;;;13.73;7.88;;;9.30;99.90;;;;;;2080264;28;20038;-67
2022/04/29 03:21:54;;;;;;;13.10;8.07;;;9.30;99.90;;;;;;2080504;28;20065;-67
2022/04/29 03:22:54;;;;;;;11.13;7.07;;;9.30;99.90;;;;;;2079719;28;20757;-67
2022/04/29 03:23:55;;;;;;;15.70;8.65;;;9.30;99.90;;;;;;2080999;28;20033;-67
2022/04/29 03:24:55;;;;;;;10.73;7.60;;;9.30;99.90;;;;;;2080057;28;20064;-68
2022/04/29 03:25:56;;;;;;;11.95;7.95;;;9.30;99.90;;;;;;2077857;28;20041;-68
2022/04/29 03:26:56;;;;;;;10.57;7.68;;;9.20;99.90;;;;;;2080079;28;20025;-68
2022/04/29 03:27:57;;;;;;;11.25;8.35;;;9.30;99.90;;;;;;2080752;28;20026;-68
2022/04/29 03:28:58;;;;;;;13.93;7.43;;;9.30;99.90;;;;;;2081368;28;20018;-68
2022/04/29 03:29:59;;;;;;;14.63;8.43;;;9.20;99.90;;;;;;2083415;28;20036;-68
2022/04/29 03:30:59;;;;;;;13.73;8.15;;;9.20;99.90;;;;;;2080563;28;20049;-68
2022/04/29 03:32:00;;;;;;;13.95;8.02;;;9.20;99.90;;;;;;2082033;28;20434;-68
2022/04/29 03:33:04;;;;;;;11.68;7.95;;;9.20;99.90;;;;;;2080413;28;20036;-68
2022/04/29 03:34:04;;;;;;;18.35;8.68;;;9.20;99.90;;;;;;2081120;28;20030;-68
2022/04/29 03:35:05;;;;;;;13.38;8.23;;;9.20;99.90;;;;;;2082212;28;20030;-68
2022/04/29 03:36:06;;;;;;;15.63;8.40;;;9.20;99.90;;;;;;2079889;28;20038;-68
2022/04/29 03:37:07;;;;;;;10.75;7.78;;;9.20;99.90;;;;;;2082385;28;20108;-68
2022/04/29 03:38:08;;;;;;;14.38;7.78;;;9.20;99.90;;;;;;2082124;28;20040;-68
2022/04/29 03:39:08;;;;;;;16.10;8.13;;;9.20;99.90;;;;;;2080315;28;20060;-68
2022/04/29 03:40:09;;;;;;;15.63;9.40;;;9.20;99.90;;;;;;2079574;28;20037;-68
2022/04/29 03:41:12;;;;;;;14.65;9.05;;;9.20;99.90;;;;;;2079944;28;20116;-68
2022/04/29 03:42:13;;;;;;;11.10;7.85;;;9.20;99.90;;;;;;2080572;28;20052;-68
2022/04/29 03:43:13;;;;;;;12.65;8.25;;;9.20;99.90;;;;;;2080417;28;20063;-68
2022/04/29 03:44:14;;;;;;;16.15;8.35;;;9.20;99.90;;;;;;2082973;28;20029;-68
2022/04/29 03:45:15;;;;;;;14.85;9.27;;;9.20;99.90;;;;;;2082648;28;20443;-68
2022/04/29 03:46:15;;;;;;;13.48;7.60;;;9.20;99.90;;;;;;2082461;28;20111;-68
2022/04/29 03:47:16;;;;;;;15.70;9.88;;;9.20;99.90;;;;;;2082297;28;20017;-68
2022/04/29 03:48:16;;;;;;;14.23;9.05;;;9.20;99.90;;;;;;2080034;28;20025;-68
2022/04/29 03:50:01;;;;;;;17.58;9.38;;;9.20;99.90;;;;;;2080521;28;20024;-68
2022/04/29 03:50:40;;;;;;;12.85;8.88;;;9.10;99.90;;;;;;2075991;28;20042;-68
2022/04/29 03:51:41;;;;;;;14.57;9.32;;;9.10;99.90;;;;;;2080583;28;20021;-68
2022/04/29 03:52:54;;;;;;;14.27;8.88;;;9.10;99.90;;;;;;2082970;28;20029;-68
2022/04/29 03:53:54;;;;;;;13.80;8.15;;;9.10;99.90;;;;;;2079235;28;20025;-68
2022/04/29 03:54:56;;;;;;;11.32;8.77;;;9.10;99.90;;;;;;2079589;28;20029;-68
2022/04/29 03:55:56;;;;;;;14.27;7.93;;;9.10;99.90;;;;;;2079656;28;20023;-68
2022/04/29 03:56:58;;;;;;;14.45;8.90;;;9.10;99.90;;;;;;2080256;28;20029;-68
2022/04/29 03:57:59;;;;;;;12.10;8.30;;;9.10;99.90;;;;;;2080270;28;20116;-68
2022/04/29 03:59:00;;;;;;;14.23;8.45;;;9.10;99.90;;;;;;2080365;28;20032;-68
2022/04/29 04:00:00;;;;;;;15.75;9.20;;;9.10;99.90;;;;;;2080496;28;20049;-68
2022/04/29 04:01:01;;;;;;;16.35;9.10;;;9.10;99.90;;;;;;2079905;28;20029;-68
2022/04/29 04:02:01;;;;;;;15.15;9.27;;;9.10;99.90;;;;;;2080477;28;20461;-68
2022/04/29 04:03:05;;;;;;;13.85;9.27;;;9.00;99.90;;;;;;2079120;28;20493;-68
2022/04/29 04:04:06;;;;;;;13.55;8.50;;;9.10;99.90;;;;;;2080614;28;20199;-68
2022/04/29 04:05:08;;;;;;;9.82;6.85;;;9.10;99.90;;;;;;2079849;28;20025;-68
2022/04/29 04:07:27;;;;;;;15.05;8.25;;;9.10;99.90;;;;;;2077728;28;20029;-68
2022/04/29 04:08:30;;;;;;;10.43;7.38;;;9.00;99.90;;;;;;2081391;28;20108;-68
2022/04/29 04:09:30;;;;;;;13.95;8.90;;;9.00;99.90;;;;;;2081681;28;20028;-68
2022/04/29 04:10:31;;;;;;;15.75;8.63;;;9.10;99.90;;;;;;2080404;28;20063;-68
2022/04/29 04:11:31;;;;;;;12.93;7.72;;;9.00;99.90;;;;;;2080196;28;20056;-68
2022/04/29 04:12:42;;;;;;;15.85;9.90;;;9.10;99.90;;;;;;2080093;28;20093;-68
2022/04/29 04:13:43;;;;;;;19.58;10.23;;;9.00;99.90;;;;;;2080560;28;20044;-68
2022/04/29 04:14:43;;;;;;;12.93;8.88;;;9.00;99.90;;;;;;2080141;28;20097;-68
2022/04/29 04:15:44;;;;;;;17.77;9.73;;;9.00;99.90;;;;;;2077585;28;20041;-68
2022/04/29 04:16:45;;;;;;;16.70;9.93;;;9.00;99.90;;;;;;2079341;28;20091;-68
2022/04/29 04:17:47;;;;;;;13.43;9.73;;;9.00;99.90;;;;;;2079875;28;20033;-68
2022/04/29 04:18:47;;;;;;;13.30;9.40;;;9.00;99.90;;;;;;2081396;28;20047;-68
2022/04/29 04:19:48;;;;;;;18.42;10.00;;;9.00;99.90;;;;;;2080046;28;20035;-68
2022/04/29 04:20:48;;;;;;;17.27;9.73;;;9.00;99.90;;;;;;2080543;28;20025;-68
2022/04/29 04:21:49;;;;;;;21.77;10.68;;;9.00;99.90;;;;;;2080154;28;20389;-68
2022/04/29 04:22:49;;;;;;;20.58;9.90;;;9.00;99.90;;;;;;2079101;28;20026;-68
2022/04/29 04:23:50;;;;;;;19.70;10.02;;;9.00;99.90;;;;;;2081649;28;20106;-68
2022/04/29 04:24:50;;;;;;;16.15;8.88;;;9.00;99.90;;;;;;2079916;28;20033;-68
2022/04/29 04:25:51;;;;;;;22.13;10.40;;;9.00;99.90;;;;;;2078630;28;20095;-68
2022/04/29 04:26:51;;;;;;;17.30;9.65;;;8.90;99.90;;;;;;2079890;28;20076;-68
2022/04/29 04:27:52;;;;;;;15.85;9.32;;;8.90;99.90;;;;;;2079675;28;20032;-68
2022/04/29 04:28:53;;;;;;;16.15;8.63;;;8.90;99.90;;;;;;2079751;28;20063;-68
2022/04/29 04:29:53;;;;;;;10.60;8.10;;;8.90;99.90;;;;;;2078967;28;20108;-68
2022/04/29 04:30:54;;;;;;;16.67;9.70;;;8.90;99.90;;;;;;2079743;28;20473;-68
2022/04/29 04:31:54;;;;;;;12.77;9.48;;;9.00;99.90;;;;;;2083034;28;20075;-68
2022/04/29 04:32:55;;;;;;;17.50;9.98;;;8.90;99.90;;;;;;2080337;28;20596;-68
2022/04/29 04:33:55;;;;;;;15.68;9.63;;;9.00;99.90;;;;;;2079771;28;20021;-68
2022/04/29 04:34:57;;;;;;;10.60;7.65;;;9.00;99.90;;;;;;2080295;28;20018;-68
2022/04/29 04:35:58;;;;;;;14.60;9.07;;;8.90;99.90;;;;;;2079893;28;20026;-68
2022/04/29 04:36:59;;;;;;;14.38;9.77;;;9.00;99.90;;;;;;2079870;28;20535;-68
2022/04/29 04:37:59;;;;;;;17.08;11.07;;;8.90;99.90;;;;;;2079355;28;20421;-68
2022/04/29 04:39:00;;;;;;;16.92;10.30;;;9.00;99.90;;;;;;2079821;28;20256;-68
2022/04/29 04:40:02;;;;;;;19.60;10.75;;;9.00;99.90;;;;;;2079096;28;20037;-68
2022/04/29 04:41:03;;;;;;;13.80;9.60;;;9.00;99.90;;;;;;2080710;28;20048;-68
2022/04/29 04:42:06;;;;;;;13.63;9.32;;;9.00;99.90;;;;;;2079337;28;20036;-68
2022/04/29 04:43:06;;;;;;;12.77;8.25;;;9.00;99.90;;;;;;2079817;28;20018;-68
2022/04/29 04:44:07;;;;;;;16.38;10.20;;;9.00;99.90;;;;;;2079440;28;20037;-68
2022/04/29 04:45:08;;;;;;;13.32;10.15;;;9.00;99.90;;;;;;2079431;28;20033;-68
2022/04/29 04:46:11;;;;;;;13.70;9.43;;;9.00;99.90;;;;;;2079370;28;20029;-68
2022/04/29 04:47:13;;;;;;;12.85;10.40;;;9.00;99.90;;;;;;2079537;28;20020;-67
2022/04/29 04:48:13;;;;;;;15.60;10.80;;;9.00;99.90;;;;;;2078994;28;20013;-67
2022/04/29 04:49:15;;;;;;;12.45;9.20;;;9.00;99.90;;;;;;2079771;28;20048;-67
2022/04/29 04:50:16;;;;;;;14.32;10.68;;;9.00;99.90;;;;;;2079647;28;21098;-68
2022/04/29 04:51:16;;;;;;;19.00;10.57;;;9.00;99.90;;;;;;2079221;28;20376;-68
2022/04/29 04:52:17;;;;;;;15.00;10.45;;;9.00;99.90;;;;;;2079406;28;20597;-68
2022/04/29 04:53:18;;;;;;;16.77;10.27;;;9.00;99.90;;;;;;2079456;28;20083;-68
2022/04/29 04:54:18;;;;;;;16.75;11.05;;;9.10;99.90;;;;;;2076773;28;20600;-68
2022/04/29 04:55:19;;;;;;;16.13;10.13;;;9.10;99.90;;;;;;2077560;28;20347;-68
2022/04/29 04:56:19;;;;;;;17.30;10.50;;;9.10;99.90;;;;;;2079458;28;20589;-68
2022/04/29 04:57:20;;;;;;;14.55;10.57;;;9.10;99.90;;;;;;2079578;28;20444;-68
2022/04/29 04:58:20;;;;;;;17.55;10.90;;;9.10;99.90;;;;;;2079529;28;20053;-68
2022/04/29 04:59:21;;;;;;;18.25;10.68;;;9.10;99.90;;;;;;2078916;28;20033;-67
2022/04/29 05:00:21;;;;;;;17.40;10.77;;;9.10;99.90;;;;;;2079635;28;20052;-67
2022/04/29 05:01:22;;;;;;;19.00;11.40;;;9.10;99.90;;;;;;2079251;28;20032;-67
2022/04/29 05:02:23;;;;;;;16.33;10.98;;;9.10;99.90;;;;;;2079003;28;20021;-67
2022/04/29 05:03:23;;;;;;;18.05;11.85;;;9.10;99.90;;;;;;2078656;28;20095;-67
2022/04/29 05:04:24;;;;;;;17.02;11.35;;;9.10;99.90;;;;;;2079653;28;20104;-67
2022/04/29 05:05:24;;;;;;;19.77;11.05;;;9.10;99.90;;;;;;2078486;28;20079;-67
2022/04/29 05:06:25;;;;;;;18.55;11.85;;;9.10;99.90;;;;;;2079464;28;20040;-67
2022/04/29 05:07:25;;;;;;;21.52;11.85;;;9.10;99.90;;;;;;2079341;28;20049;-67
2022/04/29 05:08:26;;;;;;;15.25;11.27;;;9.10;99.90;;;;;;2079567;28;20025;-67
2022/04/29 05:09:27;;;;;;;18.80;11.18;;;9.10;99.90;;;;;;2079198;28;20028;-67
2022/04/29 05:10:27;;;;;;;15.80;9.85;;;9.20;99.90;;;;;;2080961;28;20029;-67
2022/04/29 05:11:27;;;;;;;19.00;12.23;;;9.20;99.90;;;;;;2077812;28;20038;-68
2022/04/29 05:12:28;;;;;;;16.85;12.18;;;9.20;99.90;;;;;;2078754;28;20017;-67
2022/04/29 05:13:28;;;;;;;19.58;11.95;;;9.20;99.90;;;;;;2079173;28;20029;-67
2022/04/29 05:14:29;;;;;;;18.13;11.48;;;9.20;99.90;;;;;;2080320;28;20021;-67
2022/04/29 05:15:30;;;;;;;23.35;11.82;;;9.20;99.90;;;;;;2076884;28;20116;-67
2022/04/29 05:16:30;;;;;;;17.00;12.20;;;9.20;99.90;;;;;;2076746;28;20030;-67
2022/04/29 05:17:31;;;;;;;17.50;11.65;;;9.30;99.90;;;;;;2078205;28;20108;-67
2022/04/29 05:18:31;;;;;;;18.55;12.27;;;9.30;99.90;;;;;;2078543;28;20100;-67